createdAt,value
2023-01-13T00:01:24.004Z,100324.81
2023-01-13T00:03:52.664Z,100318.81
2023-01-13T00:06:26.098Z,100323.16
2023-01-13T00:08:55.177Z,100322.34
2023-01-13T00:11:24.653Z,100324.97
2023-01-13T00:13:52.973Z,100327.59
2023-01-13T00:16:22.184Z,100320.72
2023-01-13T00:18:51.855Z,100325.91
2023-01-13T00:21:23.632Z,100322.44
2023-01-13T00:23:54.154Z,100314.66
2023-01-13T00:26:23.977Z,100316.38
2023-01-13T00:28:52.489Z,100324.19
2023-01-13T00:31:22.377Z,100315.53
2023-01-13T00:33:51.349Z,100312.06
2023-01-13T00:36:22.285Z,100312.09
2023-01-13T00:38:50.730Z,100309.47
2023-01-13T00:41:21.256Z,100307.78
2023-01-13T00:43:49.574Z,100312.13
2023-01-13T00:46:20.494Z,100313.00
2023-01-13T00:48:49.897Z,100307.00
2023-01-13T00:51:20.422Z,100301.78
2023-01-13T00:53:51.468Z,100308.66
2023-01-13T00:56:38.543Z,100308.66
2023-01-13T00:59:08.336Z,100312.84
2023-01-13T01:01:36.733Z,100311.97
2023-01-13T01:04:05.140Z,100306.81
2023-01-13T01:06:33.387Z,100293.00
2023-01-13T01:09:03.047Z,100301.56
2023-01-13T01:11:33.042Z,100298.16
2023-01-13T01:14:04.174Z,100297.28
2023-01-13T01:16:34.381Z,100293.78
2023-01-13T01:19:03.895Z,100290.31
2023-01-13T01:21:33.074Z,100292.91
2023-01-13T01:24:04.873Z,100291.09
2023-01-13T01:26:33.394Z,100282.41
2023-01-13T01:29:02.734Z,100281.56
2023-01-13T01:31:32.774Z,100287.59
2023-01-13T01:34:02.337Z,100285.88
2023-01-13T01:36:31.272Z,100274.66
2023-01-13T01:39:00.835Z,100272.91
2023-01-13T01:41:33.237Z,100278.13
2023-01-13T01:44:07.402Z,100276.44
2023-01-13T01:46:38.173Z,100276.41
2023-01-13T01:49:15.321Z,100265.13
2023-01-13T01:51:47.657Z,100262.50
2023-01-13T01:54:21.353Z,100258.16
2023-01-13T01:56:51.553Z,100256.47
2023-01-13T01:59:20.105Z,100264.25
2023-01-13T02:01:49.773Z,100254.72
2023-01-13T02:04:21.928Z,100247.78
2023-01-13T02:06:51.419Z,100258.09
2023-01-13T02:09:19.733Z,100257.25
2023-01-13T02:12:05.366Z,100254.63
2023-01-13T02:14:36.492Z,100259.81
2023-01-13T02:17:20.371Z,100250.25
2023-01-13T02:20:18.842Z,100246.81
2023-01-13T02:23:34.923Z,100242.44
2023-01-13T02:26:31.851Z,100243.38
2023-01-13T02:29:31.338Z,100243.41
2023-01-13T02:32:08.825Z,100236.63
2023-01-13T02:34:41.841Z,100235.75
2023-01-13T02:37:18.455Z,100225.38
2023-01-13T02:39:53.688Z,100240.91
2023-01-13T02:42:45.874Z,100239.19
2023-01-13T02:45:18.958Z,100234.81
2023-01-13T02:47:50.968Z,100233.06
2023-01-13T02:50:23.574Z,100234.75
2023-01-13T02:52:56.260Z,100235.66
2023-01-13T02:55:28.079Z,100230.50
2023-01-13T02:57:59.722Z,100232.28
2023-01-13T03:00:29.518Z,100233.16
2023-01-13T03:02:59.309Z,100226.41
2023-01-13T03:05:27.602Z,100219.50
2023-01-13T03:08:10.794Z,100222.16
2023-01-13T03:10:52.030Z,100217.88
2023-01-13T03:13:34.695Z,100208.41
2023-01-13T03:16:14.625Z,100210.09
2023-01-13T03:18:51.790Z,100215.28
2023-01-13T03:21:26.874Z,100212.69
2023-01-13T03:24:02.325Z,100217.81
2023-01-13T03:26:42.393Z,100212.72
2023-01-13T03:29:18.450Z,100199.72
2023-01-13T03:31:54.998Z,100207.50
2023-01-13T03:34:30.289Z,100214.44
2023-01-13T03:37:00.837Z,100206.59
2023-01-13T03:39:33.491Z,100208.28
2023-01-13T03:42:06.924Z,100212.63
2023-01-13T03:44:38.390Z,100205.72
2023-01-13T03:47:14.496Z,100207.41
2023-01-13T03:49:51.033Z,100204.75
2023-01-13T03:52:23.869Z,100208.19
2023-01-13T03:54:56.867Z,100204.72
2023-01-13T03:57:31.043Z,100204.66
2023-01-13T04:00:04.093Z,100206.31
2023-01-13T04:02:44.954Z,100200.25
2023-01-13T04:05:15.657Z,100207.16
2023-01-13T04:07:51.384Z,100202.81
2023-01-13T04:10:25.035Z,100204.53
2023-01-13T04:13:05.278Z,100215.72
2023-01-13T04:15:37.713Z,100207.13
2023-01-13T04:18:18.855Z,100200.25
2023-01-13T04:20:50.747Z,100201.97
2023-01-13T04:23:20.074Z,100206.25
2023-01-13T04:25:49.026Z,100208.06
2023-01-13T04:28:17.338Z,100207.22
2023-01-13T04:30:46.409Z,100205.44
2023-01-13T04:33:15.538Z,100213.19
2023-01-13T04:35:45.018Z,100215.78
2023-01-13T04:38:16.048Z,100220.94
2023-01-13T04:40:44.409Z,100213.16
2023-01-13T04:43:12.785Z,100215.78
2023-01-13T04:45:40.907Z,100217.47
2023-01-13T04:48:09.256Z,100215.84
2023-01-13T04:50:37.542Z,100209.91
2023-01-13T04:53:05.873Z,100213.41
2023-01-13T04:55:35.460Z,100205.72
2023-01-13T04:58:04.839Z,100213.50
2023-01-13T05:00:33.046Z,100204.84
2023-01-13T05:03:01.591Z,100216.94
2023-01-13T05:05:31.010Z,100216.00
2023-01-13T05:07:59.449Z,100211.66
2023-01-13T05:10:28.095Z,100218.53
2023-01-13T05:13:14.876Z,100220.31
2023-01-13T05:16:01.510Z,100225.53
2023-01-13T05:18:32.072Z,100221.19
2023-01-13T05:21:00.255Z,100221.22
2023-01-13T05:23:46.577Z,100229.88
2023-01-13T05:26:14.853Z,100234.19
2023-01-13T05:28:44.404Z,100233.34
2023-01-13T05:31:15.023Z,100241.19
2023-01-13T05:33:43.228Z,100242.09
2023-01-13T05:36:11.550Z,100236.91
2023-01-13T05:38:39.720Z,100232.63
2023-01-13T05:41:25.095Z,100232.69
2023-01-13T05:43:54.624Z,100231.00
2023-01-13T05:46:22.888Z,100232.75
2023-01-13T05:48:51.021Z,100231.09
2023-01-13T05:51:19.831Z,100226.75
2023-01-13T05:53:47.993Z,100228.47
2023-01-13T05:56:18.118Z,100224.13
2023-01-13T05:58:46.272Z,100224.06
2023-01-13T06:01:15.820Z,100228.38
2023-01-13T06:03:43.965Z,100232.69
2023-01-13T06:06:12.107Z,100233.53
2023-01-13T06:08:40.288Z,100236.09
2023-01-13T06:11:08.970Z,100236.09
2023-01-13T06:13:37.162Z,100229.16
2023-01-13T06:16:05.696Z,100234.38
2023-01-13T06:18:35.241Z,100245.63
2023-01-13T06:21:03.441Z,100229.25
2023-01-13T06:23:35.156Z,100236.16
2023-01-13T06:26:09.707Z,100242.19
2023-01-13T06:28:37.847Z,100240.47
2023-01-13T06:31:08.748Z,100234.41
2023-01-13T06:33:40.396Z,100243.84
2023-01-13T06:36:13.853Z,100241.16
2023-01-13T06:38:46.552Z,100249.75
2023-01-13T06:41:15.255Z,100241.94
2023-01-13T06:43:42.418Z,100250.50
2023-01-13T06:46:10.520Z,100257.28
2023-01-13T06:48:40.290Z,100257.19
2023-01-13T06:51:08.445Z,100262.31
2023-01-13T06:53:36.618Z,100263.09
2023-01-13T06:56:04.930Z,100260.50
2023-01-13T06:58:33.046Z,100255.41
2023-01-13T07:01:02.813Z,100255.41
2023-01-13T07:03:31.269Z,100260.63
2023-01-13T07:06:02.326Z,100265.00
2023-01-13T07:08:30.516Z,100263.31
2023-01-13T07:11:01.582Z,100261.63
2023-01-13T07:13:47.327Z,100263.34
2023-01-13T07:16:15.554Z,100269.31
2023-01-13T07:18:43.685Z,100263.19
2023-01-13T07:21:13.822Z,100257.06
2023-01-13T07:23:43.020Z,100259.53
2023-01-13T07:26:12.398Z,100252.41
2023-01-13T07:28:41.219Z,100254.91
2023-01-13T07:31:16.301Z,100248.63
2023-01-13T07:33:44.891Z,100252.03
2023-01-13T07:36:15.322Z,100258.84
2023-01-13T07:38:44.656Z,100255.28
2023-01-13T07:41:33.093Z,100257.63
2023-01-13T07:44:05.031Z,100253.88
2023-01-13T07:46:33.580Z,100264.88
2023-01-13T07:49:01.693Z,100259.41
2023-01-13T07:51:31.907Z,100266.09
2023-01-13T07:54:00.106Z,100268.47
2023-01-13T07:56:28.258Z,100274.44
2023-01-13T07:58:56.390Z,100274.34
2023-01-13T08:01:24.651Z,100279.56
2023-01-13T08:03:52.804Z,100283.06
2023-01-13T08:06:21.025Z,100288.94
2023-01-13T08:08:50.874Z,100284.63
2023-01-13T08:11:19.604Z,100284.91
2023-01-13T08:13:48.919Z,100289.94
2023-01-13T08:16:17.394Z,100302.78
2023-01-13T08:18:45.570Z,100282.69
2023-01-13T08:21:15.780Z,100285.31
2023-01-13T08:23:45.349Z,100297.38
2023-01-13T08:26:17.373Z,100289.81
2023-01-13T08:28:46.105Z,100295.00
2023-01-13T08:31:17.103Z,100289.75
2023-01-13T08:33:45.820Z,100302.66
2023-01-13T08:36:14.546Z,100301.69
2023-01-13T08:38:42.920Z,100304.22
2023-01-13T08:41:12.151Z,100301.50
2023-01-13T08:43:41.706Z,100305.78
2023-01-13T08:46:09.957Z,100300.56
2023-01-13T08:48:38.186Z,100301.28
2023-01-13T08:51:08.977Z,100310.88
2023-01-13T08:53:37.470Z,100318.63
2023-01-13T08:56:11.060Z,100317.66
2023-01-13T08:58:39.203Z,100313.44
2023-01-13T09:01:10.277Z,100318.81
2023-01-13T09:03:39.264Z,100324.97
2023-01-13T09:06:07.701Z,100320.66
2023-01-13T09:08:35.993Z,100318.09
2023-01-13T09:11:24.578Z,100320.69
2023-01-13T09:13:52.056Z,100310.19
2023-01-13T09:16:22.024Z,100303.94
2023-01-13T09:18:50.139Z,100314.22
2023-01-13T09:21:20.034Z,100314.97
2023-01-13T09:23:48.273Z,100316.63
2023-01-13T09:26:19.594Z,100312.13
2023-01-13T09:28:47.726Z,100309.41
2023-01-13T09:31:16.022Z,100309.22
2023-01-13T09:34:02.748Z,100305.56
2023-01-13T09:36:30.912Z,100308.81
2023-01-13T09:38:59.331Z,100306.19
2023-01-13T09:41:44.270Z,100301.91
2023-01-13T09:44:18.068Z,100293.16
2023-01-13T09:46:52.569Z,100290.72
2023-01-13T09:49:24.982Z,100291.88
2023-01-13T09:52:00.040Z,100290.91
2023-01-13T09:54:35.171Z,100295.19
2023-01-13T09:57:03.952Z,100288.22
2023-01-13T09:59:36.582Z,100289.91
2023-01-13T10:02:18.311Z,100286.28
2023-01-13T10:05:03.843Z,100292.34
2023-01-13T10:07:35.346Z,100291.56
2023-01-13T10:10:09.344Z,100286.47
2023-01-13T10:12:55.186Z,100289.69
2023-01-13T10:15:25.999Z,100292.19
2023-01-13T10:18:01.102Z,100285.84
2023-01-13T10:20:40.191Z,100294.25
2023-01-13T10:23:25.691Z,100285.41
2023-01-13T10:26:05.323Z,100288.94
2023-01-13T10:28:33.491Z,100279.97
2023-01-13T10:31:03.585Z,100283.47
2023-01-13T10:33:31.875Z,100286.88
2023-01-13T10:36:03.164Z,100290.19
2023-01-13T10:38:59.720Z,100278.16
2023-01-13T10:41:29.280Z,100281.47
2023-01-13T10:44:03.685Z,100273.44
2023-01-13T10:46:33.498Z,100269.16
2023-01-13T10:49:03.565Z,100270.31
2023-01-13T10:51:44.923Z,100265.97
2023-01-13T10:54:22.483Z,100258.81
2023-01-13T10:56:51.487Z,100252.78
2023-01-13T10:59:24.216Z,100245.75
2023-01-13T11:01:59.538Z,100240.16
2023-01-13T11:04:31.744Z,100248.81
2023-01-13T11:07:04.093Z,100238.22
2023-01-13T11:09:33.796Z,100240.59
2023-01-13T11:12:03.198Z,100238.09
2023-01-13T11:14:39.836Z,100231.00
2023-01-13T11:17:17.603Z,100218.69
2023-01-13T11:19:51.865Z,100217.03
2023-01-13T11:22:29.704Z,100223.91
2023-01-13T11:25:02.637Z,100214.31
2023-01-13T11:27:42.742Z,100208.25
2023-01-13T11:30:32.847Z,100207.25
2023-01-13T11:33:22.274Z,100205.19
2023-01-13T11:35:59.765Z,100204.28
2023-01-13T11:38:35.089Z,100201.78
2023-01-13T11:41:12.176Z,100206.78
2023-01-13T11:43:47.942Z,100212.72
2023-01-13T11:46:16.134Z,100206.44
2023-01-13T11:48:44.767Z,100200.47
2023-01-13T11:51:29.759Z,100202.94
2023-01-13T11:54:22.701Z,100191.00
2023-01-13T11:57:24.356Z,100178.94
2023-01-13T12:00:19.027Z,100175.34
2023-01-13T12:02:57.103Z,100180.34
2023-01-13T12:05:35.188Z,100173.47
2023-01-13T12:08:19.855Z,100172.50
2023-01-13T12:11:02.673Z,100151.13
2023-01-13T12:13:41.581Z,100144.47
2023-01-13T12:16:23.800Z,100142.63
2023-01-13T12:19:21.427Z,100138.28
2023-01-13T12:22:04.875Z,100134.72
2023-01-13T12:24:39.482Z,100135.72
2023-01-13T12:27:18.174Z,100131.41
2023-01-13T12:29:50.333Z,100130.75
2023-01-13T12:32:22.049Z,100130.84
2023-01-13T12:35:05.314Z,100141.19
2023-01-13T12:37:38.801Z,100151.38
2023-01-13T12:40:22.450Z,100142.75
2023-01-13T12:43:17.873Z,100148.19
2023-01-13T12:45:46.067Z,100147.22
2023-01-13T12:48:49.393Z,100138.59
2023-01-13T12:51:24.760Z,100138.50
2023-01-13T12:53:53.288Z,100137.69
2023-01-13T12:56:42.218Z,100136.72
2023-01-13T12:59:50.714Z,100133.84
2023-01-13T13:02:34.877Z,100128.63
2023-01-13T13:05:40.283Z,100132.16
2023-01-13T13:08:23.954Z,100134.03
2023-01-13T13:11:07.943Z,100142.66
2023-01-13T13:13:44.667Z,100140.91
2023-01-13T13:16:46.417Z,100147.94
2023-01-13T13:19:45.964Z,100153.03
2023-01-13T13:22:39.815Z,100153.94
2023-01-13T13:25:27.430Z,100149.56
2023-01-13T13:28:18.977Z,100144.28
2023-01-13T13:31:05.626Z,100151.13
2023-01-13T13:33:51.290Z,100138.41
2023-01-13T13:36:42.837Z,100135.06
2023-01-13T13:39:48.243Z,100139.38
2023-01-13T13:42:38.217Z,100139.69
2023-01-13T13:45:34.410Z,100149.03
2023-01-13T13:48:20.083Z,100141.97
2023-01-13T13:50:51.008Z,100151.56
2023-01-13T13:53:21.286Z,100154.97
2023-01-13T13:55:59.669Z,100163.78
2023-01-13T13:58:29.970Z,100176.00
2023-01-13T14:00:59.490Z,100161.13
2023-01-13T14:03:31.512Z,100165.28
2023-01-13T14:06:02.863Z,100157.34
2023-01-13T14:08:51.248Z,100163.47
2023-01-13T14:11:27.738Z,100169.38
2023-01-13T14:14:03.751Z,100167.50
2023-01-13T14:16:33.449Z,100169.41
2023-01-13T14:19:02.452Z,100168.38
2023-01-13T14:21:32.848Z,100172.56
2023-01-13T14:24:10.843Z,100168.09
2023-01-13T14:26:39.434Z,100163.06
2023-01-13T14:29:07.926Z,100167.25
2023-01-13T14:31:36.342Z,100170.78
2023-01-13T14:34:31.301Z,100167.38
2023-01-13T14:36:57.905Z,100175.09
2023-01-13T14:39:33.330Z,100176.84
2023-01-13T14:42:01.830Z,100180.25
2023-01-13T14:44:32.096Z,100175.88
2023-01-13T14:47:02.373Z,100181.03
2023-01-13T14:49:36.254Z,100174.06
2023-01-13T14:52:16.202Z,100172.19
2023-01-13T14:54:49.612Z,100169.56
2023-01-13T14:57:25.799Z,100168.63
2023-01-13T15:00:06.442Z,100171.44
2023-01-13T15:03:01.984Z,100173.25
2023-01-13T15:05:42.852Z,100172.44
2023-01-13T15:08:42.600Z,100166.31
2023-01-13T15:11:25.067Z,100166.31
2023-01-13T15:14:01.334Z,100168.09
2023-01-13T15:16:33.877Z,100164.66
2023-01-13T15:19:03.459Z,100166.41
2023-01-13T15:21:31.609Z,100159.44
2023-01-13T15:24:01.246Z,100161.19
2023-01-13T15:26:31.541Z,100164.53
2023-01-13T15:29:01.754Z,100168.09
2023-01-13T15:31:30.551Z,100163.06
2023-01-13T15:34:00.836Z,100171.00
2023-01-13T15:36:31.252Z,100174.44
2023-01-13T15:39:02.103Z,100174.50
2023-01-13T15:41:59.414Z,100171.22
2023-01-13T15:44:44.888Z,100168.31
2023-01-13T15:47:14.624Z,100169.34
2023-01-13T15:49:45.413Z,100176.34
2023-01-13T15:52:21.563Z,100179.03
2023-01-13T15:54:51.915Z,100179.03
2023-01-13T15:57:24.261Z,100181.66
2023-01-13T15:59:54.390Z,100193.88
2023-01-13T16:02:23.658Z,100190.34
2023-01-13T16:04:54.009Z,100192.09
2023-01-13T16:07:23.674Z,100182.63
2023-01-13T16:09:54.104Z,100184.16
2023-01-13T16:12:22.556Z,100185.03
2023-01-13T16:14:50.877Z,100191.19
2023-01-13T16:17:20.972Z,100193.78
2023-01-13T16:19:49.686Z,100185.13
2023-01-13T16:22:18.954Z,100190.25
2023-01-13T16:24:48.356Z,100183.19
2023-01-13T16:27:20.224Z,100186.75
2023-01-13T16:29:49.554Z,100183.28
2023-01-13T16:32:18.349Z,100182.38
2023-01-13T16:34:46.922Z,100181.53
2023-01-13T16:37:21.468Z,100177.16
2023-01-13T16:39:49.947Z,100183.34
2023-01-13T16:42:19.713Z,100181.56
2023-01-13T16:44:48.510Z,100179.03
2023-01-13T16:47:18.478Z,100175.53
2023-01-13T16:49:47.165Z,100177.16
2023-01-13T16:52:15.627Z,100183.16
2023-01-13T16:54:43.825Z,100174.75
2023-01-13T16:57:14.257Z,100174.81
2023-01-13T16:59:43.891Z,100180.88
2023-01-13T17:02:14.843Z,100185.25
2023-01-13T17:04:43.607Z,100185.31
2023-01-13T17:07:18.083Z,100176.69
2023-01-13T17:09:46.357Z,100169.69
2023-01-13T17:12:14.597Z,100172.25
2023-01-13T17:14:45.087Z,100171.34
2023-01-13T17:17:23.397Z,100162.47
2023-01-13T17:19:52.799Z,100173.72
2023-01-13T17:22:21.843Z,100175.53
2023-01-13T17:24:49.998Z,100174.81
2023-01-13T17:27:18.911Z,100173.00
2023-01-13T17:29:49.243Z,100168.59
2023-01-13T17:32:19.230Z,100164.44
2023-01-13T17:34:47.406Z,100174.06
2023-01-13T17:37:15.836Z,100178.50
2023-01-13T17:39:46.554Z,100181.13
2023-01-13T17:42:15.668Z,100179.66
2023-01-13T17:44:44.266Z,100179.50
2023-01-13T17:47:14.043Z,100189.72
2023-01-13T17:49:42.614Z,100187.88
2023-01-13T17:52:11.143Z,100189.56
2023-01-13T17:54:43.174Z,100182.47
2023-01-13T17:57:11.711Z,100181.53
2023-01-13T17:59:41.868Z,100192.75
2023-01-13T18:02:14.362Z,100194.38
2023-01-13T18:04:43.032Z,100191.59
2023-01-13T18:07:17.209Z,100197.72
2023-01-13T18:09:45.878Z,100202.00
2023-01-13T18:12:14.677Z,100202.84
2023-01-13T18:14:42.818Z,100200.22
2023-01-13T18:17:11.724Z,100201.13
2023-01-13T18:19:59.240Z,100201.97
2023-01-13T18:22:45.279Z,100206.34
2023-01-13T18:25:31.247Z,100198.50
2023-01-13T18:28:01.339Z,100201.88
2023-01-13T18:30:29.519Z,100195.66
2023-01-13T18:32:58.233Z,100206.97
2023-01-13T18:35:28.346Z,100208.78
2023-01-13T18:37:57.159Z,100209.63
2023-01-13T18:40:25.735Z,100215.56
2023-01-13T18:42:54.497Z,100206.88
2023-01-13T18:45:25.090Z,100208.53
2023-01-13T18:47:54.400Z,100212.09
2023-01-13T18:50:23.296Z,100214.69
2023-01-13T18:52:53.516Z,100216.41
2023-01-13T18:55:23.501Z,100205.84
2023-01-13T18:57:53.307Z,100222.41
2023-01-13T19:00:24.329Z,100216.31
2023-01-13T19:05:35.925Z,100214.59
2023-01-13T19:08:06.965Z,100217.94
2023-01-13T19:10:37.000Z,100225.78
2023-01-13T19:13:05.303Z,100224.13
2023-01-13T19:15:34.003Z,100231.91
2023-01-13T19:18:02.178Z,100234.50
2023-01-13T19:20:30.392Z,100224.13
2023-01-13T19:22:59.207Z,100233.72
2023-01-13T19:25:29.639Z,100227.66
2023-01-13T19:27:58.688Z,100239.78
2023-01-13T19:30:29.545Z,100238.88
2023-01-13T19:32:57.893Z,100250.16
2023-01-13T19:35:27.210Z,100246.75
2023-01-13T19:37:56.532Z,100257.28
2023-01-13T19:40:25.744Z,100259.88
2023-01-13T19:43:13.258Z,100263.31
2023-01-13T19:45:41.808Z,100264.78
2023-01-13T19:48:16.377Z,100259.56
2023-01-13T19:50:45.461Z,100272.63
2023-01-13T19:53:18.602Z,100278.00
2023-01-13T19:55:48.817Z,100296.38
2023-01-13T19:58:20.729Z,100292.13
2023-01-13T20:00:53.274Z,100293.78
2023-01-13T20:03:25.673Z,100305.06
2023-01-13T20:05:55.562Z,100309.44
2023-01-13T20:08:24.802Z,100305.06
2023-01-13T20:11:14.276Z,100311.09
2023-01-13T20:13:43.955Z,100298.00
2023-01-13T20:16:13.066Z,100304.00
2023-01-13T20:18:42.448Z,100304.81
2023-01-13T20:21:11.573Z,100300.44
2023-01-13T20:23:40.880Z,100285.63
2023-01-13T20:26:09.791Z,100284.72
2023-01-13T20:28:39.773Z,100286.66
2023-01-13T20:31:12.400Z,100292.84
2023-01-13T20:33:41.463Z,100283.34
2023-01-13T20:36:17.131Z,100280.91
2023-01-13T20:38:46.371Z,100274.81
2023-01-13T20:41:32.174Z,100273.13
2023-01-13T20:44:01.349Z,100278.53
2023-01-13T20:46:31.397Z,100280.19
2023-01-13T20:48:59.934Z,100278.44
2023-01-13T20:51:32.194Z,100279.31
2023-01-13T20:54:00.809Z,100286.31
2023-01-13T20:56:29.843Z,100289.75
2023-01-13T20:58:58.981Z,100288.19
2023-01-13T21:01:28.504Z,100289.94
2023-01-13T21:03:59.381Z,100288.09
2023-01-13T21:06:28.326Z,100286.47
2023-01-13T21:08:58.059Z,100287.34
2023-01-13T21:11:54.260Z,100288.41
2023-01-13T21:14:41.788Z,100281.25
2023-01-13T21:17:33.511Z,100272.59
2023-01-13T21:20:04.316Z,100264.75
2023-01-13T21:22:32.765Z,100277.13
2023-01-13T21:25:02.549Z,100260.66
2023-01-13T21:27:31.131Z,100255.28
2023-01-13T21:29:59.548Z,100263.09
2023-01-13T21:32:27.758Z,100253.50
2023-01-13T21:34:56.140Z,100256.94
2023-01-13T21:37:25.760Z,100246.41
2023-01-13T21:39:54.190Z,100247.19
2023-01-13T21:42:42.772Z,100255.03
2023-01-13T21:45:29.640Z,100251.47
2023-01-13T21:47:58.274Z,100260.19
2023-01-13T21:50:28.497Z,100267.22
2023-01-13T21:53:02.176Z,100261.16
2023-01-13T21:55:32.498Z,100253.34
2023-01-13T21:58:02.376Z,100256.75
2023-01-13T22:00:33.197Z,100253.22
2023-01-13T22:03:04.339Z,100260.97
2023-01-13T22:05:33.330Z,100273.06
2023-01-13T22:08:02.926Z,100276.59
2023-01-13T22:10:32.073Z,100281.88
2023-01-13T22:13:21.578Z,100291.38
2023-01-13T22:15:49.733Z,100294.88
2023-01-13T22:18:18.437Z,100298.38
2023-01-13T22:20:46.777Z,100306.63
2023-01-13T22:23:16.356Z,100320.91
2023-01-13T22:25:44.504Z,100327.91
2023-01-13T22:28:14.021Z,100319.16
2023-01-13T22:30:42.593Z,100316.38
2023-01-13T22:33:10.972Z,100322.34
2023-01-13T22:35:39.089Z,100321.38
2023-01-13T22:38:07.206Z,100328.31
2023-01-13T22:40:36.743Z,100333.59
2023-01-13T22:43:04.829Z,100347.47
2023-01-13T22:45:33.004Z,100352.88
2023-01-13T22:48:01.170Z,100346.72
2023-01-13T22:50:29.682Z,100355.31
2023-01-13T22:52:59.377Z,100343.91
2023-01-13T22:55:27.853Z,100349.91
2023-01-13T22:57:57.442Z,100352.41
2023-01-13T23:00:25.846Z,100345.31
2023-01-13T23:02:54.059Z,100343.59
2023-01-13T23:05:22.149Z,100342.63
2023-01-13T23:07:50.415Z,100322.59
2023-01-13T23:10:18.674Z,100325.91
2023-01-13T23:12:49.015Z,100318.78
2023-01-13T23:15:19.849Z,100313.78
2023-01-13T23:17:50.287Z,100301.72
2023-01-13T23:20:19.393Z,100301.72
2023-01-13T23:22:47.808Z,100295.53
2023-01-13T23:25:16.030Z,100286.06
2023-01-13T23:27:44.117Z,100289.66
2023-01-13T23:30:13.256Z,100288.91
2023-01-13T23:32:42.763Z,100286.31
2023-01-13T23:35:11.294Z,100289.94
2023-01-13T23:37:39.429Z,100282.97
2023-01-13T23:40:09.844Z,100268.22
2023-01-13T23:42:37.962Z,100277.75
2023-01-13T23:45:06.973Z,100275.19
2023-01-13T23:47:36.321Z,100271.72
2023-01-13T23:50:06.395Z,100282.47
2023-01-13T23:52:34.495Z,100273.03
2023-01-13T23:55:02.693Z,100272.97
2023-01-13T23:57:30.848Z,100279.84
2023-01-13T23:59:59.044Z,100277.13
